Time;durP1;ratioP1;P1;durP2;ratioP2;P2;SDS_P1;SDS_P2;PMS_P1;PMS_P2;Temp;Humidity;BMP_temperature;BMP_pressure;BME280_temperature;BME280_humidity;BME280_pressure;Samples;Min_cycle;Max_cycle;Signal;HPM_P1;HPM_P2
2022/01/16 00:00:40;;;;;;;10.73;7.25;;;0.50;99.90;;;;;;502999;236;27460;-68
2022/01/16 00:04:39;;;;;;;18.35;8.98;;;0.50;99.90;;;;;;503056;236;27946;-68
2022/01/16 00:06:41;;;;;;;13.62;8.15;;;0.50;99.90;;;;;;503054;236;27471;-68
2022/01/16 00:08:41;;;;;;;11.88;7.75;;;0.40;99.90;;;;;;502992;236;27454;-68
2022/01/16 00:10:43;;;;;;;14.70;9.00;;;0.50;99.90;;;;;;503059;236;27565;-68
2022/01/16 00:12:48;;;;;;;13.68;8.57;;;0.40;99.90;;;;;;503059;236;27442;-68
2022/01/16 00:14:45;;;;;;;15.80;9.30;;;0.50;99.90;;;;;;502741;236;27533;-68
2022/01/16 00:16:46;;;;;;;16.60;9.55;;;0.50;99.90;;;;;;503076;236;27500;-68
2022/01/16 00:18:52;;;;;;;16.02;8.77;;;0.50;99.90;;;;;;503068;236;27568;-68
2022/01/16 00:20:52;;;;;;;17.85;9.73;;;0.40;99.90;;;;;;502943;236;28978;-68
2022/01/16 00:22:53;;;;;;;13.48;8.52;;;0.40;99.90;;;;;;503062;236;27962;-68
2022/01/16 00:24:54;;;;;;;18.52;10.32;;;0.40;99.90;;;;;;502936;236;27441;-68
2022/01/16 00:26:55;;;;;;;15.73;9.68;;;0.50;99.90;;;;;;503084;236;27463;-68
2022/01/16 00:28:57;;;;;;;15.10;8.90;;;0.50;99.90;;;;;;503064;236;27501;-68
2022/01/16 00:30:58;;;;;;;14.27;8.80;;;0.40;99.90;;;;;;503037;236;27447;-68
2022/01/16 00:33:01;;;;;;;12.95;8.38;;;0.40;99.90;;;;;;503045;236;27531;-68
2022/01/16 00:35:00;;;;;;;11.57;7.80;;;0.40;99.90;;;;;;502980;236;27447;-68
2022/01/16 00:37:02;;;;;;;17.95;9.18;;;0.40;99.90;;;;;;503067;236;27446;-68
2022/01/16 00:39:03;;;;;;;12.63;7.80;;;0.40;99.90;;;;;;503052;236;27986;-68
2022/01/16 00:41:04;;;;;;;12.75;7.60;;;0.40;99.90;;;;;;503021;236;27901;-68
2022/01/16 00:43:05;;;;;;;14.02;8.27;;;0.40;99.90;;;;;;503052;236;27575;-68
2022/01/16 00:45:07;;;;;;;13.75;8.52;;;0.40;99.90;;;;;;503080;236;27485;-68
2022/01/16 00:47:08;;;;;;;15.65;8.18;;;0.40;99.90;;;;;;503066;236;27520;-68
2022/01/16 00:49:10;;;;;;;11.77;7.82;;;0.40;99.90;;;;;;503071;236;27474;-68
2022/01/16 00:51:10;;;;;;;12.65;8.75;;;0.40;99.90;;;;;;503055;236;27453;-69
2022/01/16 00:53:12;;;;;;;15.50;9.05;;;0.40;99.90;;;;;;503060;236;27507;-68
2022/01/16 00:55:13;;;;;;;14.02;7.87;;;0.40;99.90;;;;;;503088;236;27477;-68
2022/01/16 00:57:14;;;;;;;14.38;7.60;;;0.40;99.90;;;;;;503088;236;27550;-68
2022/01/16 00:59:15;;;;;;;13.80;8.05;;;0.50;99.90;;;;;;503048;236;28061;-68
2022/01/16 01:01:17;;;;;;;13.80;8.02;;;0.50;99.90;;;;;;503061;236;28036;-68
2022/01/16 01:03:18;;;;;;;16.37;9.35;;;0.50;99.90;;;;;;503040;236;27466;-69
2022/01/16 01:05:19;;;;;;;15.13;8.82;;;0.50;99.90;;;;;;503078;236;27470;-68
2022/01/16 01:07:21;;;;;;;16.27;8.52;;;0.40;99.90;;;;;;503051;236;27442;-68
2022/01/16 01:09:22;;;;;;;15.45;8.70;;;0.40;99.90;;;;;;503049;236;27495;-68
2022/01/16 01:11:27;;;;;;;14.50;8.23;;;0.40;99.90;;;;;;503024;236;27497;-68
2022/01/16 01:15:26;;;;;;;15.20;8.60;;;0.50;99.90;;;;;;503064;236;27482;-68
2022/01/16 01:17:27;;;;;;;17.80;8.00;;;0.40;99.90;;;;;;503035;236;28041;-68
2022/01/16 01:19:35;;;;;;;15.13;8.18;;;0.40;99.90;;;;;;503034;236;28010;-68
2022/01/16 01:21:35;;;;;;;15.60;8.27;;;0.40;99.90;;;;;;503015;236;27516;-68
2022/01/16 01:23:36;;;;;;;16.25;9.77;;;0.40;99.90;;;;;;503080;236;27512;-68
2022/01/16 01:25:38;;;;;;;16.40;10.25;;;0.40;99.90;;;;;;503046;236;27553;-68
2022/01/16 01:27:41;;;;;;;12.35;8.48;;;0.40;99.90;;;;;;503039;236;27553;-68
2022/01/16 01:29:46;;;;;;;17.37;8.60;;;0.40;99.90;;;;;;502880;236;27516;-68
2022/01/16 01:31:42;;;;;;;12.88;7.47;;;0.40;99.90;;;;;;502554;236;28021;-68
2022/01/16 01:33:43;;;;;;;16.27;9.23;;;0.40;99.90;;;;;;503057;236;27984;-68
2022/01/16 01:35:44;;;;;;;16.17;10.13;;;0.30;99.90;;;;;;503047;236;27964;-68
2022/01/16 01:37:45;;;;;;;16.80;9.13;;;0.40;99.90;;;;;;503061;236;27437;-68
2022/01/16 01:39:47;;;;;;;16.45;9.48;;;0.40;99.90;;;;;;503049;236;27573;-69
2022/01/16 01:41:51;;;;;;;14.48;8.27;;;0.40;99.90;;;;;;503061;236;27525;-68
2022/01/16 01:51:04;;;;;;;18.87;10.05;;;0.50;99.90;;;;;;503049;236;27517;-68
2022/01/16 01:53:02;;;;;;;18.55;11.12;;;0.40;99.90;;;;;;502826;236;28038;-68
2022/01/16 01:55:03;;;;;;;16.40;9.82;;;0.40;99.90;;;;;;503039;236;27442;-68
2022/01/16 01:57:05;;;;;;;20.30;9.52;;;0.40;99.90;;;;;;503047;236;27485;-68
2022/01/16 01:59:06;;;;;;;16.83;9.07;;;0.40;99.90;;;;;;503038;236;27474;-68
2022/01/16 02:01:07;;;;;;;18.60;10.02;;;0.40;99.90;;;;;;503071;236;27497;-68
2022/01/16 02:03:41;;;;;;;18.40;9.65;;;0.40;99.90;;;;;;503057;236;27619;-68
2022/01/16 02:05:28;;;;;;;20.85;11.02;;;0.40;99.90;;;;;;501733;236;27837;-68
2022/01/16 02:07:29;;;;;;;17.15;10.77;;;0.40;99.90;;;;;;503069;236;27521;-68
2022/01/16 02:09:31;;;;;;;18.37;10.50;;;0.40;99.90;;;;;;503029;236;27599;-68
2022/01/16 02:11:32;;;;;;;22.73;11.55;;;0.40;99.90;;;;;;503038;236;27441;-68
2022/01/16 02:13:45;;;;;;;22.30;11.93;;;0.40;99.90;;;;;;503048;236;27846;-68
2022/01/16 02:31:24;;;;;;;28.45;15.35;;;0.40;99.90;;;;;;503052;236;27488;-68
2022/01/16 02:34:29;;;;;;;27.15;13.70;;;0.40;99.90;;;;;;502803;236;27449;-68
2022/01/16 02:35:23;;;;;;;25.62;13.75;;;0.40;99.90;;;;;;501180;236;27467;-68
2022/01/16 02:37:25;;;;;;;25.25;13.90;;;0.40;99.90;;;;;;503042;236;28310;-68
2022/01/16 02:39:26;;;;;;;20.75;11.55;;;0.40;99.90;;;;;;503078;236;27952;-68
2022/01/16 02:41:27;;;;;;;26.55;13.20;;;0.40;99.90;;;;;;503079;236;27978;-68
2022/01/16 02:43:34;;;;;;;21.70;12.13;;;0.40;99.90;;;;;;503075;236;27427;-69
2022/01/16 02:45:36;;;;;;;23.83;12.88;;;0.40;99.90;;;;;;502897;236;27892;-68
2022/01/16 02:47:34;;;;;;;21.37;11.32;;;0.40;99.90;;;;;;502788;236;27910;-68
2022/01/16 02:49:35;;;;;;;22.10;11.73;;;0.40;99.90;;;;;;503096;236;27490;-68
2022/01/16 02:51:36;;;;;;;26.98;15.27;;;0.40;99.90;;;;;;503091;236;27465;-68
2022/01/16 02:53:38;;;;;;;27.75;13.07;;;0.30;99.90;;;;;;503066;236;27550;-68
2022/01/16 02:55:44;;;;;;;33.15;15.07;;;0.30;99.90;;;;;;503035;236;27429;-68
2022/01/16 02:57:43;;;;;;;34.67;16.17;;;0.30;99.90;;;;;;502979;236;28047;-68
2022/01/16 02:59:45;;;;;;;30.27;14.82;;;0.30;99.90;;;;;;503081;236;27435;-68
2022/01/16 03:01:46;;;;;;;29.98;16.40;;;0.30;99.90;;;;;;503010;236;27482;-68
2022/01/16 03:03:47;;;;;;;32.38;16.37;;;0.40;99.90;;;;;;503053;236;27462;-68
2022/01/16 03:05:48;;;;;;;37.03;17.52;;;0.40;99.90;;;;;;503050;236;27517;-68
2022/01/16 03:07:49;;;;;;;39.40;17.80;;;0.30;99.90;;;;;;503097;236;27488;-68
2022/01/16 03:10:05;;;;;;;30.90;16.60;;;0.30;99.90;;;;;;502999;236;27460;-68
2022/01/16 03:11:55;;;;;;;35.08;17.10;;;0.30;99.90;;;;;;502067;236;27434;-68
2022/01/16 03:13:56;;;;;;;38.20;16.67;;;0.30;99.90;;;;;;503067;236;27949;-68
2022/01/16 03:15:57;;;;;;;33.20;17.12;;;0.30;99.90;;;;;;503110;236;27970;-68
2022/01/16 03:22:19;;;;;;;35.45;17.30;;;0.30;99.90;;;;;;503039;236;29281;-68
2022/01/16 03:24:21;;;;;;;34.40;17.37;;;0.30;99.90;;;;;;503094;236;27438;-68
2022/01/16 03:26:22;;;;;;;28.52;15.35;;;0.30;99.90;;;;;;503074;236;27460;-68
2022/01/16 03:28:25;;;;;;;29.52;15.25;;;0.30;99.90;;;;;;503064;236;27509;-68
2022/01/16 03:30:24;;;;;;;33.50;16.65;;;0.20;99.90;;;;;;502980;236;27558;-68
2022/01/16 03:32:26;;;;;;;32.25;16.95;;;0.30;99.90;;;;;;503076;236;27846;-68
2022/01/16 03:34:27;;;;;;;31.67;16.45;;;0.30;99.90;;;;;;503071;236;27966;-68
2022/01/16 03:36:28;;;;;;;34.08;15.60;;;0.20;99.90;;;;;;503055;236;27936;-68
2022/01/16 03:38:30;;;;;;;36.70;17.98;;;0.30;99.90;;;;;;503061;236;27443;-68
2022/01/16 03:40:31;;;;;;;37.50;17.12;;;0.30;99.90;;;;;;503031;236;27505;-69
2022/01/16 03:42:35;;;;;;;37.10;16.70;;;0.30;99.90;;;;;;503085;236;27478;-68
2022/01/16 03:44:33;;;;;;;37.40;16.17;;;0.20;99.90;;;;;;502832;236;27447;-68
2022/01/16 03:46:34;;;;;;;32.25;16.55;;;0.20;99.90;;;;;;503061;236;27504;-68
2022/01/16 03:48:36;;;;;;;37.10;17.60;;;0.20;99.90;;;;;;503074;236;27526;-68
2022/01/16 03:50:37;;;;;;;40.25;19.35;;;0.20;99.90;;;;;;503088;236;27931;-68
2022/01/16 03:52:38;;;;;;;37.50;17.95;;;0.20;99.90;;;;;;503070;236;27940;-68
2022/01/16 03:54:40;;;;;;;34.70;17.20;;;0.20;99.90;;;;;;503072;236;27436;-68
2022/01/16 03:56:41;;;;;;;35.92;18.00;;;0.20;99.90;;;;;;503076;236;27481;-68
2022/01/16 03:58:42;;;;;;;36.08;17.70;;;0.20;99.90;;;;;;503048;236;27435;-68
2022/01/16 04:00:44;;;;;;;40.65;18.77;;;0.20;99.90;;;;;;503070;236;27458;-68
2022/01/16 04:02:45;;;;;;;41.95;19.67;;;0.10;99.90;;;;;;503016;236;27471;-68
2022/01/16 04:04:46;;;;;;;48.58;21.55;;;0.10;99.90;;;;;;503071;236;27515;-68
2022/01/16 04:06:47;;;;;;;46.83;20.67;;;0.00;99.90;;;;;;503049;236;28044;-68
2022/01/16 04:08:48;;;;;;;53.33;23.70;;;0.00;99.90;;;;;;503072;236;28044;-68
2022/01/16 04:10:50;;;;;;;43.50;21.00;;;0.00;99.90;;;;;;503095;236;27441;-68
2022/01/16 04:12:51;;;;;;;49.92;22.60;;;0.00;99.90;;;;;;503066;236;27485;-68
2022/01/16 04:16:53;;;;;;;41.95;19.00;;;-0.10;99.90;;;;;;503054;236;27486;-68
2022/01/16 04:18:55;;;;;;;35.08;19.00;;;-0.10;99.90;;;;;;503085;236;27589;-68
2022/01/16 04:20:57;;;;;;;43.13;20.37;;;-0.10;99.90;;;;;;503062;236;27909;-68
2022/01/16 04:22:57;;;;;;;42.62;21.00;;;-0.10;99.90;;;;;;503002;236;29032;-68
2022/01/16 04:24:58;;;;;;;40.47;19.70;;;-0.20;99.90;;;;;;503057;236;27513;-68
2022/01/16 04:27:00;;;;;;;43.97;19.95;;;-0.20;99.90;;;;;;503047;236;27463;-68
2022/01/16 04:29:01;;;;;;;45.15;20.17;;;-0.20;99.90;;;;;;503035;236;27536;-68
2022/01/16 04:31:02;;;;;;;39.47;18.75;;;-0.20;99.90;;;;;;503062;236;27500;-68
2022/01/16 04:33:03;;;;;;;50.08;21.08;;;-0.30;99.90;;;;;;503054;236;27918;-68
2022/01/16 04:35:05;;;;;;;40.58;20.70;;;-0.30;99.90;;;;;;503045;236;27913;-68
2022/01/16 04:37:06;;;;;;;42.90;20.67;;;-0.40;99.90;;;;;;503078;236;27442;-68
2022/01/16 04:39:12;;;;;;;46.45;22.75;;;-0.30;99.90;;;;;;503050;236;27511;-68
2022/01/16 04:45:48;;;;;;;46.60;21.17;;;-0.30;99.90;;;;;;493209;241;27471;-68
2022/01/16 04:47:50;;;;;;;51.42;22.85;;;-0.30;99.90;;;;;;485196;245;27644;-68
2022/01/16 04:49:51;;;;;;;47.42;21.48;;;-0.40;99.90;;;;;;484493;245;27504;-68
2022/01/16 04:51:52;;;;;;;43.17;20.30;;;-0.30;99.90;;;;;;485233;245;27507;-68
2022/01/16 04:53:54;;;;;;;43.10;19.65;;;-0.30;99.90;;;;;;484498;245;27572;-68
2022/01/16 04:55:55;;;;;;;41.15;20.25;;;-0.30;99.90;;;;;;485215;245;28019;-68
2022/01/16 04:57:56;;;;;;;37.72;19.05;;;-0.30;99.90;;;;;;484437;245;29181;-68
2022/01/16 04:59:57;;;;;;;42.35;19.85;;;-0.30;99.90;;;;;;485200;245;27575;-68
2022/01/16 05:01:59;;;;;;;39.72;19.58;;;-0.30;99.90;;;;;;484523;245;27580;-68
2022/01/16 05:04:00;;;;;;;49.75;21.92;;;-0.30;99.90;;;;;;489440;243;27503;-68
2022/01/16 05:06:01;;;;;;;39.42;18.55;;;-0.30;99.90;;;;;;489423;243;27370;-68
2022/01/16 05:08:02;;;;;;;39.90;20.30;;;-0.40;99.90;;;;;;489390;243;27945;-68
2022/01/16 05:10:04;;;;;;;41.83;19.50;;;-0.40;99.90;;;;;;489452;243;29071;-68
2022/01/16 05:12:11;;;;;;;38.15;19.73;;;-0.40;99.90;;;;;;489454;243;27437;-68
2022/01/16 05:18:27;;;;;;;33.78;16.70;;;-0.50;99.90;;;;;;485221;245;27594;-68
2022/01/16 05:20:28;;;;;;;36.30;19.60;;;-0.40;99.90;;;;;;484490;245;27547;-68
2022/01/16 05:22:30;;;;;;;46.97;21.90;;;-0.40;99.90;;;;;;485188;245;27583;-68
2022/01/16 05:24:33;;;;;;;44.85;21.25;;;-0.50;99.90;;;;;;484497;245;27926;-68
2022/01/16 05:26:34;;;;;;;49.05;22.27;;;-0.50;99.90;;;;;;485127;245;29109;-68
2022/01/16 05:28:33;;;;;;;42.13;20.85;;;-0.60;99.90;;;;;;484410;245;27496;-68
2022/01/16 05:30:35;;;;;;;43.35;21.60;;;-0.60;99.90;;;;;;485191;245;27630;-68
2022/01/16 05:32:36;;;;;;;42.75;19.25;;;-0.60;99.90;;;;;;484515;245;27514;-68
2022/01/16 05:34:37;;;;;;;45.42;21.73;;;-0.70;99.90;;;;;;485202;245;27516;-68
2022/01/16 05:36:38;;;;;;;48.25;22.58;;;-0.70;99.90;;;;;;484489;245;27556;-68
2022/01/16 05:38:40;;;;;;;43.50;20.42;;;-0.70;99.90;;;;;;485206;245;28034;-68
2022/01/16 05:40:42;;;;;;;41.88;20.30;;;-0.70;99.90;;;;;;484463;245;27514;-68
2022/01/16 05:42:42;;;;;;;41.95;20.77;;;-0.70;99.90;;;;;;485175;245;27526;-68
2022/01/16 05:44:43;;;;;;;47.05;22.75;;;-0.70;99.90;;;;;;484503;245;27617;-68
2022/01/16 05:46:45;;;;;;;44.05;22.60;;;-0.70;99.90;;;;;;485197;245;27646;-68
2022/01/16 05:48:46;;;;;;;48.90;23.77;;;-0.80;99.90;;;;;;484505;245;27505;-68
2022/01/16 05:50:47;;;;;;;42.10;20.83;;;-0.80;99.90;;;;;;485218;245;28002;-68
2022/01/16 05:52:48;;;;;;;48.00;22.08;;;-0.70;99.90;;;;;;484490;245;28026;-68
2022/01/16 05:54:50;;;;;;;47.62;23.10;;;-0.70;99.90;;;;;;485213;245;27486;-68
2022/01/16 05:56:51;;;;;;;44.20;20.80;;;-0.80;99.90;;;;;;484479;245;27659;-68
2022/01/16 05:58:52;;;;;;;45.03;21.95;;;-0.80;99.90;;;;;;485180;245;27616;-68
2022/01/16 06:00:54;;;;;;;44.40;21.27;;;-0.80;99.90;;;;;;484488;245;27608;-68
2022/01/16 06:02:55;;;;;;;46.35;21.70;;;-0.80;99.90;;;;;;485209;245;28040;-68
2022/01/16 06:04:56;;;;;;;40.75;21.90;;;-0.80;99.90;;;;;;484464;245;27964;-68
2022/01/16 06:06:57;;;;;;;47.83;27.02;;;-0.70;99.90;;;;;;485193;245;27971;-68
2022/01/16 06:08:59;;;;;;;45.80;24.15;;;-0.70;99.90;;;;;;484492;245;27548;-68
2022/01/16 06:11:00;;;;;;;45.22;23.35;;;-0.70;99.90;;;;;;485185;245;28004;-68
2022/01/16 06:13:02;;;;;;;41.78;23.48;;;-0.70;99.90;;;;;;484469;245;28033;-68
2022/01/16 06:15:04;;;;;;;43.05;22.48;;;-0.80;99.90;;;;;;485181;245;27500;-68
2022/01/16 06:17:04;;;;;;;39.28;20.20;;;-0.80;99.90;;;;;;484408;245;27517;-68
2022/01/16 06:19:05;;;;;;;44.15;23.15;;;-0.80;99.90;;;;;;485218;245;27615;-68
2022/01/16 06:21:06;;;;;;;42.83;20.83;;;-0.70;99.90;;;;;;484471;245;27504;-68
2022/01/16 06:23:07;;;;;;;47.08;20.60;;;-0.70;99.90;;;;;;485182;245;29033;-69
2022/01/16 06:25:09;;;;;;;44.65;19.92;;;-0.70;99.90;;;;;;484484;245;29293;-68
2022/01/16 06:27:10;;;;;;;45.22;21.48;;;-0.70;99.90;;;;;;485216;245;27511;-68
2022/01/16 06:29:11;;;;;;;40.03;20.30;;;-0.70;99.90;;;;;;484506;245;27523;-68
2022/01/16 06:31:13;;;;;;;39.28;21.17;;;-0.70;99.90;;;;;;485180;245;27605;-68
2022/01/16 06:33:14;;;;;;;46.15;21.12;;;-0.70;99.90;;;;;;484288;245;27554;-68
2022/01/16 06:35:15;;;;;;;44.67;21.33;;;-0.70;99.90;;;;;;485031;245;27630;-68
2022/01/16 06:37:16;;;;;;;45.42;21.35;;;-0.70;99.90;;;;;;484310;245;28043;-68
2022/01/16 06:39:18;;;;;;;43.70;21.30;;;-0.70;99.90;;;;;;485001;245;27514;-68
2022/01/16 06:41:19;;;;;;;47.58;21.55;;;-0.80;99.90;;;;;;484405;245;27567;-68
2022/01/16 06:43:20;;;;;;;44.95;23.10;;;-0.80;99.90;;;;;;485208;245;27515;-68
2022/01/16 06:45:21;;;;;;;47.72;23.35;;;-0.80;99.90;;;;;;484498;245;27614;-68
2022/01/16 06:47:23;;;;;;;41.88;21.50;;;-0.70;99.90;;;;;;485202;245;27496;-69
2022/01/16 06:49:24;;;;;;;45.22;23.00;;;-0.70;99.90;;;;;;484481;245;27992;-68
2022/01/16 06:51:25;;;;;;;43.83;21.90;;;-0.80;99.90;;;;;;485196;245;29207;-68
2022/01/16 06:53:26;;;;;;;42.75;21.17;;;-0.80;99.90;;;;;;484507;245;27503;-68
2022/01/16 06:55:28;;;;;;;41.67;21.20;;;-0.70;99.90;;;;;;485212;245;27540;-68
2022/01/16 06:57:29;;;;;;;40.85;21.00;;;-0.60;99.90;;;;;;484483;245;27627;-68
2022/01/16 06:59:32;;;;;;;37.13;19.80;;;-0.70;99.90;;;;;;485196;245;27620;-68
2022/01/16 07:01:31;;;;;;;40.65;19.90;;;-0.70;99.90;;;;;;484409;245;28019;-68
2022/01/16 07:03:33;;;;;;;45.50;21.42;;;-0.70;99.90;;;;;;485201;245;29029;-68
2022/01/16 07:05:34;;;;;;;43.42;22.70;;;-0.80;99.90;;;;;;484443;245;28074;-68
2022/01/16 07:07:35;;;;;;;36.60;18.80;;;-0.70;99.90;;;;;;485178;245;27499;-68
2022/01/16 07:09:38;;;;;;;42.88;20.60;;;-0.70;99.90;;;;;;484496;245;27499;-68
2022/01/16 07:11:38;;;;;;;49.50;20.92;;;-0.70;99.90;;;;;;485158;245;27547;-69
2022/01/16 07:13:39;;;;;;;39.72;20.27;;;-0.70;99.90;;;;;;484484;245;27530;-68
2022/01/16 07:15:40;;;;;;;38.97;19.77;;;-0.70;99.90;;;;;;485211;245;28003;-68
2022/01/16 07:17:42;;;;;;;44.13;23.27;;;-0.70;99.90;;;;;;484480;245;27801;-68
2022/01/16 07:19:43;;;;;;;47.08;24.37;;;-0.70;99.90;;;;;;485206;245;27518;-69
2022/01/16 07:21:44;;;;;;;46.67;23.92;;;-0.70;99.90;;;;;;484495;245;27550;-69
2022/01/16 07:23:45;;;;;;;44.45;21.52;;;-0.70;99.90;;;;;;485214;245;27516;-69
2022/01/16 07:25:47;;;;;;;38.53;20.10;;;-0.70;99.90;;;;;;484484;245;27532;-69
2022/01/16 07:27:48;;;;;;;40.38;21.75;;;-0.60;99.90;;;;;;485244;245;28071;-68
2022/01/16 07:29:49;;;;;;;39.22;20.65;;;-0.60;99.90;;;;;;484505;245;28012;-68
2022/01/16 07:31:50;;;;;;;39.72;20.98;;;-0.70;99.90;;;;;;485252;245;27639;-68
2022/01/16 07:33:53;;;;;;;38.72;20.30;;;-0.70;99.90;;;;;;484496;245;27605;-68
2022/01/16 07:35:53;;;;;;;41.45;18.87;;;-0.80;99.90;;;;;;485173;245;27578;-68
2022/01/16 07:37:54;;;;;;;42.47;19.62;;;-0.70;99.90;;;;;;484507;245;27536;-68
2022/01/16 07:39:55;;;;;;;39.00;20.90;;;-0.70;99.90;;;;;;485225;245;27928;-68
2022/01/16 07:41:57;;;;;;;44.83;20.58;;;-0.70;99.90;;;;;;484480;245;29140;-68
2022/01/16 07:43:58;;;;;;;41.70;20.17;;;-0.70;99.90;;;;;;485187;245;27503;-68
2022/01/16 07:46:00;;;;;;;44.25;20.02;;;-0.70;99.90;;;;;;484510;245;27615;-68
2022/01/16 07:48:00;;;;;;;41.47;20.15;;;-0.70;99.90;;;;;;485176;245;27653;-68
2022/01/16 07:50:02;;;;;;;40.63;19.98;;;-0.70;99.90;;;;;;484495;245;27511;-68
2022/01/16 07:52:03;;;;;;;44.00;19.95;;;-0.60;99.90;;;;;;485210;245;27643;-68
2022/01/16 07:54:04;;;;;;;44.33;19.40;;;-0.60;99.90;;;;;;484492;245;28747;-69
2022/01/16 07:56:05;;;;;;;42.50;22.08;;;-0.60;99.90;;;;;;485233;245;27586;-68
2022/01/16 07:58:07;;;;;;;42.83;21.17;;;-0.70;99.90;;;;;;484521;245;27543;-68
2022/01/16 08:00:08;;;;;;;44.17;19.67;;;-0.60;99.90;;;;;;485241;245;27503;-68
2022/01/16 08:02:09;;;;;;;44.45;19.70;;;-0.60;99.90;;;;;;484487;245;27543;-68
2022/01/16 08:04:10;;;;;;;45.83;20.73;;;-0.60;99.90;;;;;;485227;245;27673;-68
2022/01/16 08:06:12;;;;;;;42.13;20.05;;;-0.60;99.90;;;;;;484530;245;29114;-68
2022/01/16 08:08:13;;;;;;;48.08;21.12;;;-0.60;99.90;;;;;;485229;245;27623;-68
2022/01/16 08:10:14;;;;;;;45.53;22.48;;;-0.60;99.90;;;;;;484527;245;27497;-68
2022/01/16 08:12:16;;;;;;;50.95;23.10;;;-0.60;99.90;;;;;;485222;245;27586;-68
2022/01/16 08:14:17;;;;;;;50.72;23.12;;;-0.60;99.90;;;;;;484520;245;27543;-68
2022/01/16 08:16:18;;;;;;;42.97;20.90;;;-0.60;99.90;;;;;;485226;245;27489;-68
2022/01/16 08:18:19;;;;;;;45.95;21.60;;;-0.50;99.90;;;;;;484519;245;28155;-68
2022/01/16 08:20:21;;;;;;;45.63;21.10;;;-0.60;99.90;;;;;;485198;245;27492;-68
2022/01/16 08:22:22;;;;;;;44.75;22.15;;;-0.50;99.90;;;;;;484526;245;27501;-68
2022/01/16 08:24:23;;;;;;;45.40;21.25;;;-0.50;99.90;;;;;;485232;245;27614;-69
2022/01/16 08:26:24;;;;;;;40.65;19.37;;;-0.50;99.90;;;;;;484510;245;27507;-68
2022/01/16 08:28:26;;;;;;;52.65;22.05;;;-0.60;99.90;;;;;;485218;245;27548;-68
2022/01/16 08:30:27;;;;;;;48.08;19.73;;;-0.50;99.90;;;;;;484495;245;28093;-68
2022/01/16 08:32:28;;;;;;;52.00;22.48;;;-0.50;99.90;;;;;;485202;245;27987;-68
2022/01/16 08:34:29;;;;;;;44.92;21.08;;;-0.40;99.90;;;;;;484498;245;27538;-68
2022/01/16 08:36:31;;;;;;;44.88;19.83;;;-0.50;99.90;;;;;;485198;245;27491;-68
2022/01/16 08:38:33;;;;;;;56.53;23.55;;;-0.40;99.90;;;;;;484489;245;27540;-68
2022/01/16 08:40:33;;;;;;;45.08;22.37;;;-0.40;99.90;;;;;;485179;245;27548;-68
2022/01/16 08:42:40;;;;;;;46.50;21.27;;;-0.50;99.90;;;;;;484504;245;28652;-68
2022/01/16 08:44:38;;;;;;;43.25;20.25;;;-0.50;99.90;;;;;;488894;243;27951;-68
2022/01/16 08:46:37;;;;;;;41.80;20.20;;;-0.50;99.90;;;;;;485157;245;27507;-68
2022/01/16 08:48:38;;;;;;;46.30;21.98;;;-0.40;99.90;;;;;;484467;245;27518;-68
2022/01/16 08:50:39;;;;;;;49.83;22.90;;;-0.40;99.90;;;;;;485225;245;27543;-68
2022/01/16 08:52:41;;;;;;;50.35;22.02;;;-0.40;99.90;;;;;;484500;245;27511;-68
2022/01/16 08:54:42;;;;;;;49.42;22.48;;;-0.50;99.90;;;;;;485221;245;28098;-68
2022/01/16 08:56:43;;;;;;;51.13;22.80;;;-0.50;99.90;;;;;;484476;245;28732;-68
2022/01/16 08:58:45;;;;;;;40.65;19.73;;;-0.50;99.90;;;;;;485233;245;27497;-68
2022/01/16 09:00:47;;;;;;;48.80;20.83;;;-0.50;99.90;;;;;;484520;245;27534;-68
2022/01/16 09:02:47;;;;;;;42.55;20.50;;;-0.40;99.90;;;;;;485134;245;27516;-68
2022/01/16 09:04:48;;;;;;;47.35;22.42;;;-0.40;99.90;;;;;;484508;245;27555;-68
2022/01/16 09:06:50;;;;;;;47.75;22.02;;;-0.40;99.90;;;;;;485226;245;28068;-68
2022/01/16 09:08:51;;;;;;;49.40;20.42;;;-0.30;99.90;;;;;;484522;245;28005;-68
2022/01/16 09:10:52;;;;;;;40.80;19.85;;;-0.30;99.90;;;;;;485222;245;27630;-68
2022/01/16 09:12:53;;;;;;;46.22;20.98;;;-0.30;99.90;;;;;;484510;245;27508;-68
2022/01/16 09:14:55;;;;;;;44.17;20.88;;;-0.30;99.90;;;;;;485224;245;27522;-68
2022/01/16 09:16:56;;;;;;;45.50;19.73;;;-0.20;99.90;;;;;;484513;245;27620;-68
2022/01/16 09:18:57;;;;;;;41.53;20.65;;;-0.30;99.90;;;;;;485229;245;27507;-68
2022/01/16 09:21:00;;;;;;;45.55;21.10;;;-0.30;99.90;;;;;;484500;245;28054;-68
2022/01/16 09:23:00;;;;;;;48.30;21.17;;;-0.40;99.90;;;;;;485146;245;29104;-69
2022/01/16 09:25:01;;;;;;;45.97;22.10;;;-0.40;99.90;;;;;;484520;245;27572;-68
2022/01/16 09:27:02;;;;;;;46.55;21.23;;;-0.40;99.90;;;;;;485213;245;27574;-68
2022/01/16 09:29:03;;;;;;;45.50;20.95;;;-0.40;99.90;;;;;;484483;245;27507;-68
2022/01/16 09:31:05;;;;;;;44.08;20.20;;;-0.30;99.90;;;;;;485192;245;27539;-68
2022/01/16 09:33:06;;;;;;;40.58;18.33;;;-0.30;99.90;;;;;;484476;245;28922;-68
2022/01/16 09:35:07;;;;;;;38.88;18.77;;;-0.20;99.90;;;;;;485237;245;27940;-68
2022/01/16 09:37:09;;;;;;;44.08;20.58;;;-0.20;99.90;;;;;;484485;245;27515;-68
2022/01/16 09:39:10;;;;;;;47.00;21.20;;;-0.10;99.90;;;;;;485192;245;27618;-68
2022/01/16 09:41:11;;;;;;;50.08;21.10;;;-0.20;99.90;;;;;;484472;245;27523;-68
2022/01/16 09:43:12;;;;;;;42.10;19.67;;;-0.20;99.90;;;;;;485187;245;27664;-68
2022/01/16 09:45:13;;;;;;;50.22;22.13;;;-0.20;99.90;;;;;;484492;245;27496;-68
2022/01/16 09:47:15;;;;;;;45.65;23.02;;;-0.10;99.90;;;;;;485186;245;27989;-68
2022/01/16 09:49:18;;;;;;;50.83;24.37;;;-0.10;99.90;;;;;;484472;245;27500;-68
2022/01/16 09:51:17;;;;;;;48.22;23.05;;;-0.10;99.90;;;;;;485065;245;27507;-68
2022/01/16 09:53:19;;;;;;;49.28;23.60;;;-0.10;99.90;;;;;;484501;245;27606;-68
2022/01/16 09:55:20;;;;;;;54.55;24.55;;;-0.10;99.90;;;;;;485211;245;27531;-68
2022/01/16 09:57:21;;;;;;;46.15;23.62;;;-0.10;99.90;;;;;;484477;245;27535;-69
2022/01/16 09:59:22;;;;;;;48.00;23.33;;;-0.10;99.90;;;;;;485197;245;28710;-68
2022/01/16 10:01:24;;;;;;;51.10;22.48;;;0.00;99.90;;;;;;484502;245;28048;-68
2022/01/16 10:05:49;;;;;;;49.15;22.90;;;0.00;99.90;;;;;;460097;257;27491;-68
2022/01/16 10:07:47;;;;;;;51.70;21.80;;;0.10;99.90;;;;;;459866;258;27594;-68
2022/01/16 10:09:48;;;;;;;43.85;19.10;;;0.10;99.90;;;;;;459855;258;27503;-68
2022/01/16 10:11:53;;;;;;;46.20;20.17;;;0.10;99.90;;;;;;459851;258;28013;-68
2022/01/16 10:14:02;;;;;;;48.08;20.60;;;0.10;99.90;;;;;;459845;258;29101;-69
2022/01/16 10:15:52;;;;;;;44.03;20.40;;;0.10;99.90;;;;;;459272;258;27465;-68
2022/01/16 10:17:53;;;;;;;46.37;21.67;;;0.20;99.90;;;;;;459856;258;27609;-68
2022/01/16 10:19:54;;;;;;;46.85;22.17;;;0.20;99.90;;;;;;459861;254;27547;-69
2022/01/16 10:21:55;;;;;;;47.08;22.40;;;0.20;99.90;;;;;;459843;258;27514;-68
2022/01/16 10:23:57;;;;;;;42.83;21.00;;;0.20;99.90;;;;;;459835;258;27954;-68
2022/01/16 10:25:58;;;;;;;47.28;22.98;;;0.20;99.90;;;;;;459872;258;28062;-68
2022/01/16 10:27:59;;;;;;;45.22;21.08;;;0.20;99.90;;;;;;459873;258;27996;-69
2022/01/16 10:30:03;;;;;;;44.58;20.88;;;0.30;99.90;;;;;;459842;258;28763;-68
2022/01/16 10:32:02;;;;;;;45.70;20.23;;;0.30;99.90;;;;;;459800;258;27497;-68
2022/01/16 10:34:04;;;;;;;48.05;22.80;;;0.30;99.90;;;;;;459886;258;27490;-68
2022/01/16 10:36:06;;;;;;;51.05;23.23;;;0.40;99.90;;;;;;459867;258;27510;-68
2022/01/16 10:38:07;;;;;;;52.72;23.87;;;0.30;99.90;;;;;;459858;258;27910;-68
2022/01/16 10:40:09;;;;;;;47.30;24.58;;;0.40;99.90;;;;;;459877;258;27982;-68
2022/01/16 10:42:09;;;;;;;47.92;24.37;;;0.40;99.90;;;;;;459833;258;28095;-69
2022/01/16 10:44:11;;;;;;;46.70;22.85;;;0.30;99.90;;;;;;459869;258;27468;-68
2022/01/16 10:46:12;;;;;;;47.33;23.60;;;0.40;99.90;;;;;;459860;258;27575;-68
2022/01/16 10:48:14;;;;;;;47.92;22.23;;;0.30;99.90;;;;;;459857;258;27542;-68
2022/01/16 10:50:14;;;;;;;44.08;21.20;;;0.30;99.90;;;;;;459872;258;27466;-68
2022/01/16 10:52:16;;;;;;;44.03;20.58;;;0.30;99.90;;;;;;459861;258;27513;-69
2022/01/16 10:54:17;;;;;;;49.42;23.10;;;0.40;99.90;;;;;;459856;258;27943;-68
2022/01/16 10:56:18;;;;;;;41.75;20.90;;;0.30;99.90;;;;;;459841;258;28081;-68
2022/01/16 10:58:19;;;;;;;47.67;23.52;;;0.30;99.90;;;;;;459899;258;27489;-68
2022/01/16 11:00:22;;;;;;;42.50;20.33;;;0.40;99.90;;;;;;459875;258;27458;-68
2022/01/16 11:02:22;;;;;;;47.15;22.40;;;0.40;99.90;;;;;;459872;258;27595;-68
2022/01/16 11:04:23;;;;;;;47.58;21.90;;;0.30;99.90;;;;;;459899;258;27538;-68